createdAt,value
2022-08-05T00:02:55.170Z,57.89
2022-08-05T00:08:00.301Z,53.80
2022-08-05T00:13:04.151Z,58.54
2022-08-05T00:18:21.393Z,58.79
2022-08-05T00:34:55.132Z,54.96
2022-08-05T00:39:37.006Z,60.05
2022-08-05T00:44:44.551Z,59.07
2022-08-05T00:49:52.574Z,58.62
2022-08-05T00:54:56.117Z,56.50
2022-08-05T00:59:58.996Z,59.04
2022-08-05T01:05:10.138Z,58.94
2022-08-05T01:10:16.067Z,57.92
2022-08-05T01:20:55.004Z,55.41
2022-08-05T01:26:14.544Z,55.33
2022-08-05T01:31:27.459Z,56.70
2022-08-05T01:36:33.917Z,55.74
2022-08-05T01:41:38.607Z,57.73
2022-08-05T01:46:54.982Z,59.09
2022-08-05T01:52:17.363Z,55.93
2022-08-05T01:58:10.299Z,55.81
2022-08-05T02:02:59.093Z,56.35
2022-08-05T02:08:02.234Z,56.62
2022-08-05T02:13:15.697Z,60.14
2022-08-05T02:18:34.362Z,57.36
2022-08-05T02:23:41.382Z,56.95
2022-08-05T02:28:46.820Z,59.68
2022-08-05T02:34:02.423Z,61.40
2022-08-05T02:39:08.996Z,58.61
2022-08-05T02:44:13.739Z,60.07
2022-08-05T02:49:22.774Z,61.69
2022-08-05T02:54:35.828Z,59.16
2022-08-05T03:05:00.041Z,57.78
2022-08-05T03:10:02.869Z,59.60
2022-08-05T03:15:07.729Z,61.72
2022-08-05T03:20:17.817Z,63.23
2022-08-05T03:25:32.860Z,60.22
2022-08-05T03:30:45.994Z,63.33
2022-08-05T03:35:56.948Z,63.61
2022-08-05T03:40:59.927Z,60.04
2022-08-05T03:46:08.227Z,64.05
2022-08-05T03:52:48.402Z,64.23
2022-08-05T03:56:47.583Z,60.32
2022-08-05T04:01:58.999Z,64.42
2022-08-05T04:07:08.923Z,63.26
2022-08-05T04:12:24.570Z,61.87
2022-08-05T04:17:55.910Z,64.74
2022-08-05T04:22:56.377Z,64.71
2022-08-05T04:28:03.940Z,62.45
2022-08-05T04:33:13.946Z,65.30
2022-08-05T04:38:22.435Z,65.91
2022-08-05T04:43:46.671Z,63.00
2022-08-05T04:48:54.807Z,66.02
2022-08-05T04:54:03.254Z,66.22
2022-08-05T04:59:22.093Z,63.47
2022-08-05T05:04:28.881Z,66.63
2022-08-05T05:09:37.253Z,67.59
2022-08-05T05:14:49.186Z,65.04
2022-08-05T05:19:54.728Z,68.05
2022-08-05T05:25:14.813Z,66.19
2022-08-05T05:30:30.576Z,63.62
2022-08-05T05:35:37.883Z,66.93
2022-08-05T05:40:51.221Z,66.80
2022-08-05T05:45:54.326Z,65.21
2022-08-05T05:50:57.087Z,67.61
2022-08-05T05:56:05.673Z,68.27
2022-08-05T06:11:59.259Z,65.56
2022-08-05T06:17:22.333Z,65.87
2022-08-05T06:22:28.918Z,68.78
2022-08-05T06:28:10.501Z,68.81
2022-08-05T06:32:59.720Z,66.67
2022-08-05T06:38:11.312Z,68.98
2022-08-05T06:48:55.785Z,64.98
2022-08-05T06:54:02.702Z,66.50
2022-08-05T06:59:09.632Z,68.76
2022-08-05T07:04:19.266Z,68.15
2022-08-05T07:09:24.880Z,64.83
2022-08-05T07:14:29.437Z,67.19
2022-08-05T07:30:28.229Z,63.86
2022-08-05T07:36:04.849Z,64.50
2022-08-05T07:41:01.449Z,66.67
2022-08-05T07:46:26.019Z,66.99
2022-08-05T07:51:36.982Z,64.56
2022-08-05T07:57:02.295Z,66.97
2022-08-05T08:02:16.268Z,67.77
2022-08-05T08:07:22.471Z,64.88
2022-08-05T08:12:33.508Z,67.55
2022-08-05T08:17:52.673Z,67.50
2022-08-05T08:22:57.968Z,64.58
2022-08-05T08:28:00.757Z,67.01
2022-08-05T08:33:14.485Z,66.79
2022-08-05T08:38:17.316Z,63.35
2022-08-05T08:45:23.703Z,66.23
2022-08-05T08:50:13.032Z,66.10
2022-08-05T08:54:31.878Z,63.70
2022-08-05T08:59:35.091Z,66.06
2022-08-05T09:04:58.578Z,66.33
2022-08-05T09:10:07.541Z,65.49
2022-08-05T09:15:11.827Z,67.49
2022-08-05T09:26:01.457Z,63.56
2022-08-05T09:31:44.251Z,66.09
2022-08-05T09:36:54.402Z,67.89
2022-08-05T09:42:07.743Z,64.23
2022-08-05T09:47:15.605Z,65.29
2022-08-05T09:52:24.635Z,66.79
2022-08-05T09:57:43.221Z,66.25
2022-08-05T10:02:48.798Z,63.10
2022-08-05T10:08:37.061Z,65.61
2022-08-05T10:13:47.222Z,64.50
2022-08-05T10:18:51.749Z,61.72
2022-08-05T10:23:59.688Z,64.56
2022-08-05T10:29:09.252Z,64.03
2022-08-05T10:34:12.311Z,62.14
2022-08-05T10:39:25.132Z,63.84
2022-08-05T10:44:50.677Z,62.37
2022-08-05T10:50:32.695Z,61.27
2022-08-05T10:55:29.429Z,61.02
2022-08-05T11:00:47.404Z,64.12
2022-08-05T11:06:15.692Z,61.81
2022-08-05T11:22:50.222Z,58.29
2022-08-05T11:28:00.572Z,59.20
2022-08-05T11:33:43.735Z,61.06
2022-08-05T11:38:57.785Z,58.92
2022-08-05T11:44:07.387Z,58.84
2022-08-05T11:49:14.190Z,59.75
2022-08-05T11:54:33.633Z,59.50
2022-08-05T11:59:41.339Z,58.29
2022-08-05T12:04:53.482Z,59.41
2022-08-05T12:10:13.184Z,59.49
2022-08-05T12:15:34.610Z,58.13
2022-08-05T12:20:41.539Z,58.08
2022-08-05T12:25:57.242Z,59.16
2022-08-05T12:31:01.964Z,58.46
2022-08-05T12:36:08.267Z,60.21
2022-08-05T12:41:17.637Z,60.79
2022-08-05T12:46:28.933Z,59.78
2022-08-05T12:52:12.390Z,61.16
2022-08-05T12:57:02.879Z,62.48
2022-08-05T13:02:08.327Z,61.39
2022-08-05T13:07:16.209Z,64.94
2022-08-05T13:12:28.538Z,64.17
2022-08-05T13:17:41.805Z,61.68
2022-08-05T13:28:06.732Z,61.07
2022-08-05T13:33:14.166Z,62.09
2022-08-05T13:38:27.981Z,63.47
2022-08-05T13:43:45.758Z,63.96
2022-08-05T13:49:01.039Z,62.23
2022-08-05T13:54:11.812Z,63.91
2022-08-05T13:59:24.429Z,64.00
2022-08-05T14:04:30.137Z,62.35
2022-08-05T14:09:35.286Z,63.95
2022-08-05T14:20:12.806Z,61.92
2022-08-05T14:30:39.688Z,62.88
2022-08-05T14:35:50.354Z,63.99
2022-08-05T14:40:54.188Z,66.83
2022-08-05T14:46:02.475Z,66.65
2022-08-05T14:51:05.598Z,65.15
2022-08-05T14:56:11.208Z,67.37
2022-08-05T15:01:22.748Z,66.68
2022-08-05T15:06:42.548Z,65.90
2022-08-05T15:11:53.712Z,66.99
2022-08-05T15:17:01.994Z,67.26
2022-08-05T15:22:06.858Z,65.59
2022-08-05T15:27:09.628Z,66.32
2022-08-05T15:32:17.730Z,65.45
2022-08-05T15:38:32.667Z,64.28
2022-08-05T15:42:54.609Z,65.68
2022-08-05T15:48:05.899Z,66.04
2022-08-05T15:53:10.123Z,64.49
2022-08-05T15:58:16.762Z,65.15
2022-08-05T16:03:24.994Z,64.95
2022-08-05T16:13:47.575Z,64.05
2022-08-05T16:18:52.263Z,64.67
2022-08-05T16:24:00.175Z,65.83
2022-08-05T16:29:13.609Z,66.08
2022-08-05T16:34:17.890Z,64.50
2022-08-05T16:39:20.894Z,66.47
2022-08-05T16:44:29.029Z,66.47
2022-08-05T16:49:31.753Z,65.30
2022-08-05T16:54:34.478Z,66.62
2022-08-05T17:00:01.515Z,67.25
2022-08-05T17:05:06.005Z,65.93
2022-08-05T17:10:10.034Z,65.28
2022-08-05T17:15:19.552Z,65.15
2022-08-05T17:20:22.630Z,64.73
2022-08-05T17:25:39.332Z,65.76
2022-08-05T17:30:50.526Z,66.29
2022-08-05T17:42:16.502Z,64.11
2022-08-05T17:46:57.264Z,64.47
2022-08-05T17:52:00.356Z,63.05
2022-08-05T17:57:12.219Z,64.50
2022-08-05T18:02:16.266Z,63.46
2022-08-05T18:07:19.096Z,63.38
2022-08-05T18:12:28.683Z,63.50
2022-08-05T18:18:00.710Z,62.61
2022-08-05T18:28:16.502Z,62.17
2022-08-05T18:33:23.178Z,63.22
2022-08-05T18:38:26.860Z,64.72
2022-08-05T18:43:38.108Z,64.88
2022-08-05T18:48:45.280Z,63.70
2022-08-05T18:53:50.719Z,64.55
2022-08-05T18:59:01.163Z,64.53
2022-08-05T19:04:05.334Z,63.73
2022-08-05T19:09:08.327Z,65.35
2022-08-05T19:14:52.440Z,65.42
2022-08-05T19:19:39.293Z,64.30
2022-08-05T19:24:54.140Z,65.71
2022-08-05T19:35:18.122Z,64.06
2022-08-05T19:40:24.622Z,64.76
2022-08-05T19:45:27.725Z,66.21
2022-08-05T19:56:14.277Z,64.20
2022-08-05T20:01:28.084Z,64.89
2022-08-05T20:06:32.940Z,66.56
2022-08-05T20:11:48.187Z,66.73
2022-08-05T20:16:51.234Z,65.45
2022-08-05T20:21:53.947Z,66.90
2022-08-05T20:27:03.497Z,67.23
2022-08-05T20:32:14.220Z,65.97
2022-08-05T20:37:18.110Z,67.45
2022-08-05T20:42:45.347Z,67.39
2022-08-05T20:47:48.568Z,65.86
2022-08-05T20:52:54.749Z,67.83
2022-08-05T20:58:02.803Z,67.92
2022-08-05T21:03:08.008Z,66.39
2022-08-05T21:08:10.954Z,67.33
2022-08-05T21:13:26.387Z,67.71
2022-08-05T21:18:45.000Z,65.70
2022-08-05T21:23:47.917Z,68.09
2022-08-05T21:28:56.636Z,68.17
2022-08-05T21:39:26.688Z,65.68
2022-08-05T21:44:31.031Z,66.42
2022-08-05T21:49:48.620Z,67.27
2022-08-05T21:55:06.348Z,67.84
2022-08-05T22:00:12.614Z,66.33
2022-08-05T22:05:15.366Z,68.07
2022-08-05T22:10:26.635Z,68.60
2022-08-05T22:16:02.156Z,67.31
2022-08-05T22:20:52.905Z,69.02
2022-08-05T22:26:10.501Z,69.80
2022-08-05T22:31:14.272Z,68.61
2022-08-05T22:36:18.416Z,70.97
2022-08-05T22:42:09.848Z,71.42
2022-08-05T22:46:49.871Z,70.46
2022-08-05T22:52:05.692Z,71.36
2022-08-05T22:57:15.809Z,71.68
2022-08-05T23:02:28.952Z,70.52
2022-08-05T23:07:33.022Z,72.13
2022-08-05T23:12:55.837Z,71.75
2022-08-05T23:18:02.124Z,70.70
2022-08-05T23:23:08.284Z,71.48
2022-08-05T23:28:17.109Z,71.72
2022-08-05T23:33:25.554Z,70.13
2022-08-05T23:38:29.488Z,71.00
2022-08-05T23:44:06.135Z,71.14
2022-08-05T23:54:19.179Z,69.44
2022-08-05T23:59:37.561Z,69.78
